sensor_id;sensor_type;location;lat;lon;timestamp;pressure;altitude;pressure_sealevel;temperature;humidity
50394;BME280;36308;46.312;25.288;2023-06-10T00:01:24;95746.50;;;17.33;62.23
50394;BME280;36308;46.312;25.288;2023-06-10T00:03:50;95737.06;;;17.31;62.34
50394;BME280;36308;46.312;25.288;2023-06-10T00:06:17;95743.28;;;17.31;62.22
50394;BME280;36308;46.312;25.288;2023-06-10T00:08:43;95743.88;;;17.28;62.65
50394;BME280;36308;46.312;25.288;2023-06-10T00:11:08;95747.22;;;17.25;62.57
50394;BME280;36308;46.312;25.288;2023-06-10T00:13:34;95746.09;;;17.26;62.46
50394;BME280;36308;46.312;25.288;2023-06-10T00:16:00;95737.44;;;17.24;62.75
50394;BME280;36308;46.312;25.288;2023-06-10T00:18:26;95732.66;;;17.21;62.45
50394;BME280;36308;46.312;25.288;2023-06-10T00:20:52;95739.81;;;17.17;62.50
50394;BME280;36308;46.312;25.288;2023-06-10T00:23:21;95736.09;;;17.13;62.63
50394;BME280;36308;46.312;25.288;2023-06-10T00:25:46;95733.38;;;17.13;62.87
50394;BME280;36308;46.312;25.288;2023-06-10T00:28:12;95732.88;;;17.11;62.91
50394;BME280;36308;46.312;25.288;2023-06-10T00:30:38;95735.91;;;17.09;62.74
50394;BME280;36308;46.312;25.288;2023-06-10T00:33:04;95737.81;;;17.09;62.86
50394;BME280;36308;46.312;25.288;2023-06-10T00:35:30;95735.72;;;17.06;63.26
50394;BME280;36308;46.312;25.288;2023-06-10T00:37:55;95731.59;;;17.08;63.12
50394;BME280;36308;46.312;25.288;2023-06-10T00:40:21;95730.75;;;17.08;63.78
50394;BME280;36308;46.312;25.288;2023-06-10T00:42:46;95740.53;;;17.09;63.51
50394;BME280;36308;46.312;25.288;2023-06-10T00:45:12;95738.91;;;17.08;63.15
50394;BME280;36308;46.312;25.288;2023-06-10T00:47:38;95733.47;;;17.08;63.09
50394;BME280;36308;46.312;25.288;2023-06-10T00:50:04;95731.69;;;17.03;63.01
50394;BME280;36308;46.312;25.288;2023-06-10T00:52:30;95732.50;;;17.04;63.44
50394;BME280;36308;46.312;25.288;2023-06-10T00:54:56;95735.53;;;17.02;63.50
50394;BME280;36308;46.312;25.288;2023-06-10T00:57:22;95733.09;;;17.01;63.40
50394;BME280;36308;46.312;25.288;2023-06-10T00:59:49;95737.75;;;17.00;63.28
50394;BME280;36308;46.312;25.288;2023-06-10T01:02:15;95729.41;;;16.96;63.34
50394;BME280;36308;46.312;25.288;2023-06-10T01:04:41;95727.81;;;16.95;63.51
50394;BME280;36308;46.312;25.288;2023-06-10T01:07:12;95730.53;;;16.95;63.69
50394;BME280;36308;46.312;25.288;2023-06-10T01:10:01;95731.63;;;16.94;63.94
50394;BME280;36308;46.312;25.288;2023-06-10T01:12:54;95734.34;;;16.94;63.87
50394;BME280;36308;46.312;25.288;2023-06-10T01:15:21;95735.13;;;16.95;63.93
50394;BME280;36308;46.312;25.288;2023-06-10T01:20:27;95746.31;;;16.93;63.91
50394;BME280;36308;46.312;25.288;2023-06-10T01:22:54;95734.97;;;16.91;63.77
50394;BME280;36308;46.312;25.288;2023-06-10T01:25:21;95737.16;;;16.89;63.92
50394;BME280;36308;46.312;25.288;2023-06-10T01:27:55;95737.16;;;16.89;64.31
50394;BME280;36308;46.312;25.288;2023-06-10T01:30:27;95740.69;;;16.90;64.04
50394;BME280;36308;46.312;25.288;2023-06-10T01:32:58;95735.56;;;16.88;64.36
50394;BME280;36308;46.312;25.288;2023-06-10T01:35:25;95730.13;;;16.88;64.11
50394;BME280;36308;46.312;25.288;2023-06-10T01:37:54;95730.13;;;16.88;64.13
50394;BME280;36308;46.312;25.288;2023-06-10T01:40:23;95726.91;;;16.86;64.27
50394;BME280;36308;46.312;25.288;2023-06-10T01:42:49;95727.69;;;16.87;64.61
50394;BME280;36308;46.312;25.288;2023-06-10T01:45:15;95720.97;;;16.84;64.56
50394;BME280;36308;46.312;25.288;2023-06-10T01:47:40;95728.53;;;16.87;64.65
50394;BME280;36308;46.312;25.288;2023-06-10T01:50:07;95722.59;;;16.85;64.79
50394;BME280;36308;46.312;25.288;2023-06-10T01:52:32;95728.81;;;16.86;64.79
50394;BME280;36308;46.312;25.288;2023-06-10T01:54:58;95724.50;;;16.85;64.59
50394;BME280;36308;46.312;25.288;2023-06-10T01:57:23;95733.47;;;16.85;64.49
50394;BME280;36308;46.312;25.288;2023-06-10T01:59:49;95736.19;;;16.85;64.95
50394;BME280;36308;46.312;25.288;2023-06-10T02:02:15;95734.56;;;16.84;64.94
50394;BME280;36308;46.312;25.288;2023-06-10T02:04:41;95735.34;;;16.85;64.87
50394;BME280;36308;46.312;25.288;2023-06-10T02:07:06;95741.59;;;16.85;65.08
50394;BME280;36308;46.312;25.288;2023-06-10T02:09:32;95749.75;;;16.85;64.83
50394;BME280;36308;46.312;25.288;2023-06-10T02:12:00;95747.03;;;16.85;64.81
50394;BME280;36308;46.312;25.288;2023-06-10T02:14:25;95750.84;;;16.84;64.72
50394;BME280;36308;46.312;25.288;2023-06-10T02:16:51;95749.25;;;16.83;64.81
50394;BME280;36308;46.312;25.288;2023-06-10T02:19:16;95740.59;;;16.81;64.90
50394;BME280;36308;46.312;25.288;2023-06-10T02:21:42;95738.44;;;16.78;64.66
50394;BME280;36308;46.312;25.288;2023-06-10T02:24:08;95740.38;;;16.77;64.60
50394;BME280;36308;46.312;25.288;2023-06-10T02:26:34;95741.78;;;16.75;64.61
50394;BME280;36308;46.312;25.288;2023-06-10T02:28:59;95739.97;;;16.70;64.82
50394;BME280;36308;46.312;25.288;2023-06-10T02:31:25;95744.41;;;16.66;64.28
50394;BME280;36308;46.312;25.288;2023-06-10T02:33:50;95747.22;;;16.61;64.32
50394;BME280;36308;46.312;25.288;2023-06-10T02:36:16;95744.31;;;16.57;64.33
50394;BME280;36308;46.312;25.288;2023-06-10T02:38:42;95747.72;;;16.49;64.69
50394;BME280;36308;46.312;25.288;2023-06-10T02:41:08;95750.56;;;16.44;64.40
50394;BME280;36308;46.312;25.288;2023-06-10T02:43:33;95750.34;;;16.41;64.79
50394;BME280;36308;46.312;25.288;2023-06-10T02:45:59;95738.78;;;16.35;65.11
50394;BME280;36308;46.312;25.288;2023-06-10T02:48:25;95745.63;;;16.32;64.97
50394;BME280;36308;46.312;25.288;2023-06-10T02:50:50;95743.19;;;16.31;64.98
50394;BME280;36308;46.312;25.288;2023-06-10T02:53:16;95750.84;;;16.29;65.22
50394;BME280;36308;46.312;25.288;2023-06-10T02:55:41;95747.94;;;16.25;65.31
50394;BME280;36308;46.312;25.288;2023-06-10T02:58:08;95752.25;;;16.26;65.35
50394;BME280;36308;46.312;25.288;2023-06-10T03:00:33;95748.22;;;16.24;65.64
50394;BME280;36308;46.312;25.288;2023-06-10T03:02:59;95745.03;;;16.22;65.58
50394;BME280;36308;46.312;25.288;2023-06-10T03:05:29;95750.22;;;16.18;65.56
50394;BME280;36308;46.312;25.288;2023-06-10T03:07:55;95747.84;;;16.16;65.77
50394;BME280;36308;46.312;25.288;2023-06-10T03:10:20;95741.91;;;16.14;65.51
50394;BME280;36308;46.312;25.288;2023-06-10T03:12:46;95745.72;;;16.13;65.52
50394;BME280;36308;46.312;25.288;2023-06-10T03:15:11;95749.53;;;16.12;65.38
50394;BME280;36308;46.312;25.288;2023-06-10T03:17:37;95750.63;;;16.11;65.45
50394;BME280;36308;46.312;25.288;2023-06-10T03:20:03;95751.25;;;16.08;65.79
50394;BME280;36308;46.312;25.288;2023-06-10T03:22:33;95746.63;;;16.09;65.90
50394;BME280;36308;46.312;25.288;2023-06-10T03:24:59;95751.25;;;16.08;65.82
50394;BME280;36308;46.312;25.288;2023-06-10T03:27:25;95746.69;;;16.04;65.81
50394;BME280;36308;46.312;25.288;2023-06-10T03:29:51;95750.25;;;16.04;65.30
50394;BME280;36308;46.312;25.288;2023-06-10T03:32:16;95748.63;;;16.03;65.72
50394;BME280;36308;46.312;25.288;2023-06-10T03:34:42;95744.59;;;16.01;65.60
50394;BME280;36308;46.312;25.288;2023-06-10T03:37:10;95751.94;;;16.00;65.57
50394;BME280;36308;46.312;25.288;2023-06-10T03:39:35;95746.81;;;15.99;65.66
50394;BME280;36308;46.312;25.288;2023-06-10T03:42:01;95743.59;;;15.96;66.09
50394;BME280;36308;46.312;25.288;2023-06-10T03:44:27;95749.81;;;15.97;66.19
50394;BME280;36308;46.312;25.288;2023-06-10T03:46:54;95749.31;;;15.95;66.14
50394;BME280;36308;46.312;25.288;2023-06-10T03:49:20;95750.41;;;15.94;66.20
50394;BME280;36308;46.312;25.288;2023-06-10T03:51:45;95757.44;;;15.95;65.79
50394;BME280;36308;46.312;25.288;2023-06-10T03:54:11;95755.00;;;15.93;66.19
50394;BME280;36308;46.312;25.288;2023-06-10T03:56:37;95753.94;;;15.94;66.39
50394;BME280;36308;46.312;25.288;2023-06-10T03:59:02;95752.00;;;15.95;66.01
50394;BME280;36308;46.312;25.288;2023-06-10T04:01:28;95749.31;;;15.95;66.47
50394;BME280;36308;46.312;25.288;2023-06-10T04:03:54;95759.06;;;15.96;66.25
50394;BME280;36308;46.312;25.288;2023-06-10T04:06:20;95754.94;;;15.99;66.33
50394;BME280;36308;46.312;25.288;2023-06-10T04:08:48;95753.03;;;15.99;66.22
50394;BME280;36308;46.312;25.288;2023-06-10T04:11:13;95756.25;;;16.01;66.28
50394;BME280;36308;46.312;25.288;2023-06-10T04:13:39;95762.69;;;16.05;66.61
50394;BME280;36308;46.312;25.288;2023-06-10T04:16:05;95762.69;;;16.05;66.52
50394;BME280;36308;46.312;25.288;2023-06-10T04:18:30;95751.25;;;16.08;66.36
50394;BME280;36308;46.312;25.288;2023-06-10T04:20:56;95757.69;;;16.12;66.18
50394;BME280;36308;46.312;25.288;2023-06-10T04:23:22;95758.78;;;16.11;66.56
50394;BME280;36308;46.312;25.288;2023-06-10T04:25:47;95753.84;;;16.13;66.43
50394;BME280;36308;46.312;25.288;2023-06-10T04:28:14;95757.06;;;16.15;66.14
50394;BME280;36308;46.312;25.288;2023-06-10T04:30:39;95764.13;;;16.16;65.94
50394;BME280;36308;46.312;25.288;2023-06-10T04:33:07;95767.00;;;16.20;65.75
50394;BME280;36308;46.312;25.288;2023-06-10T04:35:34;95769.13;;;16.23;65.91
50394;BME280;36308;46.312;25.288;2023-06-10T04:37:59;95773.16;;;16.26;65.89
50394;BME280;36308;46.312;25.288;2023-06-10T04:40:25;95767.13;;;16.29;65.51
50394;BME280;36308;46.312;25.288;2023-06-10T04:42:50;95775.75;;;16.31;65.47
50394;BME280;36308;46.312;25.288;2023-06-10T04:45:16;95767.03;;;16.34;65.23
50394;BME280;36308;46.312;25.288;2023-06-10T04:47:41;95762.09;;;16.36;65.05
50394;BME280;36308;46.312;25.288;2023-06-10T04:50:07;95768.53;;;16.40;64.79
50394;BME280;36308;46.312;25.288;2023-06-10T04:52:33;95767.75;;;16.40;64.85
50394;BME280;36308;46.312;25.288;2023-06-10T04:54:59;95761.69;;;16.43;64.76
50394;BME280;36308;46.312;25.288;2023-06-10T04:57:24;95779.19;;;16.50;64.84
50394;BME280;36308;46.312;25.288;2023-06-10T04:59:51;95771.25;;;16.54;64.69
50394;BME280;36308;46.312;25.288;2023-06-10T05:02:17;95771.94;;;16.60;64.28
50394;BME280;36308;46.312;25.288;2023-06-10T05:04:43;95782.72;;;16.65;64.10
50394;BME280;36308;46.312;25.288;2023-06-10T05:07:08;95775.56;;;16.69;64.35
50394;BME280;36308;46.312;25.288;2023-06-10T05:09:34;95773.38;;;16.71;64.29
50394;BME280;36308;46.312;25.288;2023-06-10T05:12:00;95772.75;;;16.74;63.74
50394;BME280;36308;46.312;25.288;2023-06-10T05:14:25;95773.97;;;16.82;63.58
50394;BME280;36308;46.312;25.288;2023-06-10T05:16:51;95761.09;;;16.87;63.56
50394;BME280;36308;46.312;25.288;2023-06-10T05:19:17;95766.72;;;16.91;63.36
50394;BME280;36308;46.312;25.288;2023-06-10T05:21:43;95768.03;;;16.93;63.11
50394;BME280;36308;46.312;25.288;2023-06-10T05:24:09;95776.56;;;17.01;63.22
50394;BME280;36308;46.312;25.288;2023-06-10T05:26:35;95769.91;;;17.07;63.25
50394;BME280;36308;46.312;25.288;2023-06-10T05:29:05;95769.00;;;17.11;63.49
50394;BME280;36308;46.312;25.288;2023-06-10T05:31:30;95770.47;;;17.17;63.33
50394;BME280;36308;46.312;25.288;2023-06-10T05:33:56;95777.41;;;17.24;63.08
50394;BME280;36308;46.312;25.288;2023-06-10T05:36:22;95779.69;;;17.30;62.78
50394;BME280;36308;46.312;25.288;2023-06-10T05:38:50;95767.94;;;17.35;63.15
50394;BME280;36308;46.312;25.288;2023-06-10T05:41:16;95765.56;;;17.42;62.91
50394;BME280;36308;46.312;25.288;2023-06-10T05:43:41;95758.13;;;17.48;62.91
50394;BME280;36308;46.312;25.288;2023-06-10T05:46:07;95762.00;;;17.55;63.06
50394;BME280;36308;46.312;25.288;2023-06-10T05:48:32;95759.34;;;17.64;62.85
50394;BME280;36308;46.312;25.288;2023-06-10T05:50:58;95767.06;;;17.71;62.95
50394;BME280;36308;46.312;25.288;2023-06-10T05:53:23;95770.47;;;17.76;62.91
50394;BME280;36308;46.312;25.288;2023-06-10T05:55:49;95762.19;;;17.82;62.66
50394;BME280;36308;46.312;25.288;2023-06-10T05:58:14;95764.19;;;17.90;62.71
50394;BME280;36308;46.312;25.288;2023-06-10T06:00:40;95765.34;;;17.97;62.76
50394;BME280;36308;46.312;25.288;2023-06-10T06:03:09;95764.25;;;18.07;62.39
50394;BME280;36308;46.312;25.288;2023-06-10T06:05:36;95756.97;;;18.16;61.94
50394;BME280;36308;46.312;25.288;2023-06-10T06:08:06;95754.28;;;18.25;61.93
50394;BME280;36308;46.312;25.288;2023-06-10T06:10:32;95747.75;;;18.35;61.83
50394;BME280;36308;46.312;25.288;2023-06-10T06:12:57;95750.50;;;18.44;61.30
50394;BME280;36308;46.312;25.288;2023-06-10T06:15:23;95755.84;;;18.57;60.96
50394;BME280;36308;46.312;25.288;2023-06-10T06:17:49;95747.53;;;18.63;60.50
50394;BME280;36308;46.312;25.288;2023-06-10T06:20:14;95751.25;;;18.75;60.26
50394;BME280;36308;46.312;25.288;2023-06-10T06:22:40;95757.22;;;18.86;60.01
50394;BME280;36308;46.312;25.288;2023-06-10T06:25:06;95759.63;;;18.96;59.38
50394;BME280;36308;46.312;25.288;2023-06-10T06:27:31;95756.63;;;19.07;58.62
50394;BME280;36308;46.312;25.288;2023-06-10T06:29:57;95749.28;;;19.16;58.39
50394;BME280;36308;46.312;25.288;2023-06-10T06:32:22;95750.06;;;19.25;57.91
50394;BME280;36308;46.312;25.288;2023-06-10T06:34:50;95740.94;;;19.38;57.72
50394;BME280;36308;46.312;25.288;2023-06-10T06:37:21;95750.38;;;19.50;57.37
50394;BME280;36308;46.312;25.288;2023-06-10T06:39:48;95744.28;;;19.62;57.28
50394;BME280;36308;46.312;25.288;2023-06-10T06:42:13;95742.53;;;19.74;57.02
50394;BME280;36308;46.312;25.288;2023-06-10T06:44:39;95736.75;;;19.85;56.77
50394;BME280;36308;46.312;25.288;2023-06-10T06:47:05;95736.56;;;19.98;56.81
50394;BME280;36308;46.312;25.288;2023-06-10T06:49:30;95744.88;;;20.11;57.03
50394;BME280;36308;46.312;25.288;2023-06-10T06:51:56;95726.00;;;20.27;57.10
50394;BME280;36308;46.312;25.288;2023-06-10T06:54:21;95730.47;;;20.40;56.89
50394;BME280;36308;46.312;25.288;2023-06-10T06:56:47;95724.91;;;20.57;56.55
50394;BME280;36308;46.312;25.288;2023-06-10T06:59:12;95721.53;;;20.69;56.40
50394;BME280;36308;46.312;25.288;2023-06-10T07:01:39;95726.25;;;20.81;56.04
50394;BME280;36308;46.312;25.288;2023-06-10T07:04:04;95722.47;;;20.94;56.02
50394;BME280;36308;46.312;25.288;2023-06-10T07:06:30;95714.38;;;21.07;55.58
50394;BME280;36308;46.312;25.288;2023-06-10T07:08:55;95721.94;;;21.22;55.77
50394;BME280;36308;46.312;25.288;2023-06-10T07:11:21;95727.94;;;21.36;55.52
50394;BME280;36308;46.312;25.288;2023-06-10T07:13:47;95723.69;;;21.48;54.61
50394;BME280;36308;46.312;25.288;2023-06-10T07:16:12;95719.44;;;21.59;54.29
50394;BME280;36308;46.312;25.288;2023-06-10T07:18:38;95726.06;;;21.70;54.09
50394;BME280;36308;46.312;25.288;2023-06-10T07:21:03;95717.09;;;21.82;53.90
50394;BME280;36308;46.312;25.288;2023-06-10T07:23:29;95716.34;;;21.94;53.71
50394;BME280;36308;46.312;25.288;2023-06-10T07:25:55;95721.50;;;22.08;53.44
50394;BME280;36308;46.312;25.288;2023-06-10T07:28:20;95717.66;;;22.21;53.19
50394;BME280;36308;46.312;25.288;2023-06-10T07:30:46;95717.34;;;22.35;53.03
50394;BME280;36308;46.312;25.288;2023-06-10T07:33:11;95716.22;;;22.48;52.82
50394;BME280;36308;46.312;25.288;2023-06-10T07:35:37;95713.59;;;22.64;52.72
50394;BME280;36308;46.312;25.288;2023-06-10T07:38:02;95714.84;;;22.79;52.63
50394;BME280;36308;46.312;25.288;2023-06-10T07:40:28;95710.25;;;22.95;51.74
50394;BME280;36308;46.312;25.288;2023-06-10T07:42:55;95718.50;;;23.08;51.52
50394;BME280;36308;46.312;25.288;2023-06-10T07:45:20;95718.44;;;23.20;51.39
50394;BME280;36308;46.312;25.288;2023-06-10T07:47:46;95715.66;;;23.32;51.21
50394;BME280;36308;46.312;25.288;2023-06-10T07:50:12;95710.25;;;23.48;50.89
50394;BME280;36308;46.312;25.288;2023-06-10T07:52:37;95706.41;;;23.65;50.41
50394;BME280;36308;46.312;25.288;2023-06-10T07:55:04;95706.38;;;23.77;50.16
50394;BME280;36308;46.312;25.288;2023-06-10T07:57:30;95700.16;;;23.93;49.96
50394;BME280;36308;46.312;25.288;2023-06-10T07:59:56;95704.41;;;24.06;49.52
50394;BME280;36308;46.312;25.288;2023-06-10T08:02:25;95696.53;;;24.20;49.49
50394;BME280;36308;46.312;25.288;2023-06-10T08:04:51;95691.03;;;24.36;49.41
50394;BME280;36308;46.312;25.288;2023-06-10T08:07:16;95684.41;;;24.53;49.17
50394;BME280;36308;46.312;25.288;2023-06-10T08:09:43;95693.44;;;24.70;48.71
50394;BME280;36308;46.312;25.288;2023-06-10T08:12:08;95696.06;;;24.82;47.32
50394;BME280;36308;46.312;25.288;2023-06-10T08:14:34;95700.22;;;24.92;46.54
50394;BME280;36308;46.312;25.288;2023-06-10T08:16:59;95700.44;;;25.02;46.71
50394;BME280;36308;46.312;25.288;2023-06-10T08:19:25;95699.97;;;25.16;46.17
50394;BME280;36308;46.312;25.288;2023-06-10T08:21:50;95696.69;;;25.27;45.43
50394;BME280;36308;46.312;25.288;2023-06-10T08:24:16;95705.59;;;25.39;44.67
50394;BME280;36308;46.312;25.288;2023-06-10T08:26:43;95694.34;;;25.48;44.49
50394;BME280;36308;46.312;25.288;2023-06-10T08:29:11;95696.03;;;25.53;43.21
50394;BME280;36308;46.312;25.288;2023-06-10T08:31:37;95688.94;;;25.52;42.49
50394;BME280;36308;46.312;25.288;2023-06-10T08:34:02;95688.84;;;25.48;42.02
50394;BME280;36308;46.312;25.288;2023-06-10T08:36:28;95687.19;;;25.44;42.10
50394;BME280;36308;46.312;25.288;2023-06-10T08:38:54;95683.22;;;25.41;42.26
50394;BME280;36308;46.312;25.288;2023-06-10T08:41:21;95681.16;;;25.38;42.28
50394;BME280;36308;46.312;25.288;2023-06-10T08:43:57;95675.66;;;25.38;42.23
50394;BME280;36308;46.312;25.288;2023-06-10T08:46:24;95675.31;;;25.39;42.22
50394;BME280;36308;46.312;25.288;2023-06-10T08:48:53;95667.13;;;25.43;41.94
50394;BME280;36308;46.312;25.288;2023-06-10T08:51:21;95666.56;;;25.53;42.17
50394;BME280;36308;46.312;25.288;2023-06-10T08:54:11;95671.25;;;25.72;42.19
50394;BME280;36308;46.312;25.288;2023-06-10T08:56:39;95663.78;;;25.92;41.53
50394;BME280;36308;46.312;25.288;2023-06-10T08:59:06;95662.69;;;26.20;40.65
50394;BME280;36308;46.312;25.288;2023-06-10T09:01:32;95675.94;;;26.37;40.07
50394;BME280;36308;46.312;25.288;2023-06-10T09:03:59;95671.78;;;26.47;38.75
50394;BME280;36308;46.312;25.288;2023-06-10T09:06:25;95674.19;;;26.49;38.18
50394;BME280;36308;46.312;25.288;2023-06-10T09:08:50;95668.31;;;26.50;37.87
50394;BME280;36308;46.312;25.288;2023-06-10T09:11:16;95663.22;;;26.52;37.56
50394;BME280;36308;46.312;25.288;2023-06-10T09:13:42;95663.34;;;26.59;38.17
50394;BME280;36308;46.312;25.288;2023-06-10T09:16:07;95650.88;;;26.69;36.84
50394;BME280;36308;46.312;25.288;2023-06-10T09:18:34;95654.22;;;26.82;36.79
50394;BME280;36308;46.312;25.288;2023-06-10T09:21:00;95648.84;;;26.93;37.16
50394;BME280;36308;46.312;25.288;2023-06-10T09:23:25;95646.75;;;27.13;37.32
50394;BME280;36308;46.312;25.288;2023-06-10T09:25:57;95643.13;;;27.35;36.64
50394;BME280;36308;46.312;25.288;2023-06-10T09:28:23;95656.00;;;27.58;36.42
50394;BME280;36308;46.312;25.288;2023-06-10T09:30:49;95649.94;;;27.79;35.64
50394;BME280;36308;46.312;25.288;2023-06-10T09:33:15;95653.31;;;27.99;35.06
50394;BME280;36308;46.312;25.288;2023-06-10T09:35:49;95647.91;;;28.13;34.93
50394;BME280;36308;46.312;25.288;2023-06-10T09:38:20;95648.88;;;28.32;34.57
50394;BME280;36308;46.312;25.288;2023-06-10T09:40:53;95641.09;;;28.48;34.14
50394;BME280;36308;46.312;25.288;2023-06-10T09:43:19;95645.16;;;28.61;34.47
50394;BME280;36308;46.312;25.288;2023-06-10T09:45:48;95630.19;;;28.66;34.02
50394;BME280;36308;46.312;25.288;2023-06-10T09:48:14;95636.97;;;28.76;33.87
50394;BME280;36308;46.312;25.288;2023-06-10T09:50:43;95632.28;;;28.84;33.83
50394;BME280;36308;46.312;25.288;2023-06-10T09:53:10;95632.75;;;28.96;33.24
50394;BME280;36308;46.312;25.288;2023-06-10T09:55:40;95629.63;;;29.05;33.07
50394;BME280;36308;46.312;25.288;2023-06-10T09:58:06;95631.28;;;29.17;33.08
50394;BME280;36308;46.312;25.288;2023-06-10T10:00:32;95627.78;;;29.34;32.27
50394;BME280;36308;46.312;25.288;2023-06-10T10:02:58;95615.19;;;29.48;32.47
50394;BME280;36308;46.312;25.288;2023-06-10T10:05:24;95620.44;;;29.71;33.06
50394;BME280;36308;46.312;25.288;2023-06-10T10:07:50;95626.41;;;29.91;32.86
50394;BME280;36308;46.312;25.288;2023-06-10T10:10:18;95629.22;;;30.12;32.43
50394;BME280;36308;46.312;25.288;2023-06-10T10:12:46;95624.88;;;30.29;31.63
50394;BME280;36308;46.312;25.288;2023-06-10T10:15:12;95620.53;;;30.46;31.59
50394;BME280;36308;46.312;25.288;2023-06-10T10:17:56;95623.69;;;30.62;30.58
50394;BME280;36308;46.312;25.288;2023-06-10T10:20:27;95623.66;;;30.73;29.88
50394;BME280;36308;46.312;25.288;2023-06-10T10:22:57;95622.47;;;30.78;29.31
50394;BME280;36308;46.312;25.288;2023-06-10T10:25:28;95603.84;;;30.75;28.72
50394;BME280;36308;46.312;25.288;2023-06-10T10:28:08;95617.31;;;30.73;28.73
50394;BME280;36308;46.312;25.288;2023-06-10T10:30:39;95602.28;;;30.74;28.64
50394;BME280;36308;46.312;25.288;2023-06-10T10:33:09;95616.53;;;30.76;28.82
50394;BME280;36308;46.312;25.288;2023-06-10T10:35:37;95599.06;;;30.79;28.28
50394;BME280;36308;46.312;25.288;2023-06-10T10:38:04;95597.88;;;30.83;28.62
50394;BME280;36308;46.312;25.288;2023-06-10T10:40:30;95586.41;;;30.92;28.49
50394;BME280;36308;46.312;25.288;2023-06-10T10:42:58;95587.97;;;30.93;28.21
50394;BME280;36308;46.312;25.288;2023-06-10T10:45:27;95588.75;;;30.94;27.77
50394;BME280;36308;46.312;25.288;2023-06-10T10:47:54;95585.56;;;31.02;28.87
50394;BME280;36308;46.312;25.288;2023-06-10T10:50:23;95597.00;;;31.19;28.86
50394;BME280;36308;46.312;25.288;2023-06-10T10:52:58;95594.59;;;31.28;28.48
50394;BME280;36308;46.312;25.288;2023-06-10T10:55:25;95601.69;;;31.36;28.39
50394;BME280;36308;46.312;25.288;2023-06-10T10:58:07;95605.25;;;31.33;29.53
50394;BME280;36308;46.312;25.288;2023-06-10T11:00:37;95606.88;;;31.27;29.91
50394;BME280;36308;46.312;25.288;2023-06-10T11:03:12;95618.81;;;31.17;30.14
50394;BME280;36308;46.312;25.288;2023-06-10T11:05:45;95619.63;;;31.07;30.62
50394;BME280;36308;46.312;25.288;2023-06-10T11:11:00;95645.06;;;30.87;33.51
50394;BME280;36308;46.312;25.288;2023-06-10T11:13:26;95651.44;;;30.70;35.13
50394;BME280;36308;46.312;25.288;2023-06-10T11:15:57;95635.59;;;30.45;35.60
50394;BME280;36308;46.312;25.288;2023-06-10T11:18:26;95637.13;;;30.21;35.92
50394;BME280;36308;46.312;25.288;2023-06-10T11:20:59;95633.16;;;29.97;36.90
50394;BME280;36308;46.312;25.288;2023-06-10T11:26:47;95627.44;;;29.47;38.08
50394;BME280;36308;46.312;25.288;2023-06-10T11:29:14;95621.06;;;29.28;38.83
50394;BME280;36308;46.312;25.288;2023-06-10T11:31:58;95629.59;;;28.98;39.78
50394;BME280;36308;46.312;25.288;2023-06-10T11:34:24;95647.66;;;28.77;40.22
50394;BME280;36308;46.312;25.288;2023-06-10T11:36:52;95648.22;;;28.49;40.27
50394;BME280;36308;46.312;25.288;2023-06-10T11:39:19;95634.16;;;28.20;40.29
50394;BME280;36308;46.312;25.288;2023-06-10T11:41:45;95628.00;;;27.93;40.46
50394;BME280;36308;46.312;25.288;2023-06-10T11:44:13;95624.19;;;27.71;40.70
50394;BME280;36308;46.312;25.288;2023-06-10T11:46:39;95629.09;;;27.48;40.86
50394;BME280;36308;46.312;25.288;2023-06-10T11:49:08;95636.22;;;27.22;40.14
50394;BME280;36308;46.312;25.288;2023-06-10T11:51:40;95632.34;;;26.96;40.65
50394;BME280;36308;46.312;25.288;2023-06-10T11:54:14;95635.19;;;26.73;41.21
50394;BME280;36308;46.312;25.288;2023-06-10T11:56:39;95628.53;;;26.51;41.67
50394;BME280;36308;46.312;25.288;2023-06-10T11:59:06;95634.06;;;26.28;42.18
50394;BME280;36308;46.312;25.288;2023-06-10T12:01:36;95623.09;;;26.05;42.70
50394;BME280;36308;46.312;25.288;2023-06-10T12:06:37;95632.25;;;25.70;43.59
50394;BME280;36308;46.312;25.288;2023-06-10T12:09:03;95629.69;;;25.58;44.11
50394;BME280;36308;46.312;25.288;2023-06-10T12:11:29;95626.66;;;25.44;44.11
50394;BME280;36308;46.312;25.288;2023-06-10T12:13:55;95628.41;;;25.32;44.90
50394;BME280;36308;46.312;25.288;2023-06-10T12:16:20;95627.66;;;25.16;45.20
50394;BME280;36308;46.312;25.288;2023-06-10T12:18:46;95627.28;;;24.98;45.36
50394;BME280;36308;46.312;25.288;2023-06-10T12:21:19;95641.09;;;24.82;45.93
50394;BME280;36308;46.312;25.288;2023-06-10T12:26:42;95634.13;;;24.53;46.58
50394;BME280;36308;46.312;25.288;2023-06-10T12:29:22;95645.56;;;24.39;47.27
50394;BME280;36308;46.312;25.288;2023-06-10T12:32:00;95642.03;;;24.23;47.59
50394;BME280;36308;46.312;25.288;2023-06-10T12:34:36;95648.06;;;24.12;48.29
50394;BME280;36308;46.312;25.288;2023-06-10T12:37:04;95643.44;;;24.00;48.63
50394;BME280;36308;46.312;25.288;2023-06-10T12:39:32;95658.50;;;23.91;48.90
50394;BME280;36308;46.312;25.288;2023-06-10T12:41:58;95651.25;;;23.83;49.40
50394;BME280;36308;46.312;25.288;2023-06-10T12:44:32;95636.06;;;23.73;49.97
50394;BME280;36308;46.312;25.288;2023-06-10T12:46:58;95636.66;;;23.66;50.12
50394;BME280;36308;46.312;25.288;2023-06-10T12:49:23;95631.69;;;23.56;50.42
50394;BME280;36308;46.312;25.288;2023-06-10T12:51:50;95632.31;;;23.49;50.95
50394;BME280;36308;46.312;25.288;2023-06-10T12:54:15;95617.13;;;23.39;50.98
50394;BME280;36308;46.312;25.288;2023-06-10T12:56:41;95608.25;;;23.30;51.22
50394;BME280;36308;46.312;25.288;2023-06-10T12:59:06;95605.59;;;23.18;51.52
50394;BME280;36308;46.312;25.288;2023-06-10T13:01:32;95610.75;;;23.07;51.64
50394;BME280;36308;46.312;25.288;2023-06-10T13:03:58;95617.50;;;22.97;52.02